Latest Coastal Weather Observations for Horn Island

IDQ60701

Issued at 12:25 am EST Saturday 1 November 2014 (issued every 10 minutes, with the page automatically refreshed every 10 minutes)

About coastal observations | Map of coastal stations | Coastal observations for QLD | Marine services | Other Formats
Station Details ID: 027058 Name: HORN ISLAND Lat: -10.58 Lon: 142.29 Height: 4.0 m
Data from the previous 72 hours. | See also: Recent months at Horn Island
Date/Time
EST
Temp

°C
Wind Pressure Rain
since 9am
mm
Weather Cloud Vis
km
Sea
Height
m
Swell
Dir
 
Speed
knots
Gust
knots
hPa Trend Height
m
Period
s
Dir
01/12:00am 25.8 ESE 10 14 1011.4 - 0.0 - Mostly cloudy 10 - - - -
 
Date/Time
EST
Temp

°C
Wind Pressure Rain
since 9am
mm
Weather Cloud Vis
km
Sea
Height
m
Swell
Dir
 
Speed
knots
Gust
knots
hPa Trend Height
m
Period
s
Dir
31/11:30pm 25.9 ESE 9 14 1011.7 - 0.0 - Partly cloudy 10 - - - -
31/11:00pm 26.0 SE 8 11 1011.8 - 0.0 - Partly cloudy 10 - - - -
31/10:30pm 25.8 ESE 9 13 1011.9 - 0.0 - Partly cloudy 10 - - - -
31/10:00pm 25.9 ESE 11 15 1011.8 - 0.0 - Partly cloudy 10 - - - -
31/09:30pm 25.9 ESE 10 14 1011.5 - 0.0 - Partly cloudy 10 - - - -
31/09:00pm 26.0 ESE 10 15 1011.3 - 0.0 - Mostly clear 10 - - - -
31/08:30pm 26.0 ESE 10 16 1010.7 - 0.0 - Partly cloudy 10 - - - -
31/08:00pm 26.2 ESE 10 15 1010.3 - 0.0 - Partly cloudy 10 - - - -
31/07:30pm 26.1 E 11 16 1009.9 - 0.0 - Partly cloudy 10 - - - -
31/07:00pm 26.4 E 11 15 1009.5 - 0.0 - Partly cloudy 10 - - - -
31/06:30pm 26.4 E 11 15 1009.0 - 0.0 - - 10 - - - -
31/06:00pm 26.9 E 11 16 1008.8 - 0.0 - Mostly clear 10 - - - -
31/05:30pm 27.4 E 13 18 1008.5 - 0.0 - Partly cloudy 10 - - - -
31/05:00pm 27.7 E 12 17 1008.3 - 0.0 - Partly cloudy 10 - - - -
31/04:30pm 27.9 E 13 19 1008.3 - 0.0 - Partly cloudy 10 - - - -
31/04:00pm 28.4 E 12 18 1008.3 - 0.0 - Partly cloudy 10 - - - -
31/03:30pm 28.4 E 13 18 1008.4 - 0.0 - Partly cloudy 10 - - - -
31/03:00pm 28.3 E 13 18 1008.5 - 0.0 - Mostly clear 10 - - - -
31/02:30pm 29.0 E 15 21 1008.8 - 0.0 - Partly cloudy 10 - - - -
31/02:00pm 30.0 E 14 21 1009.2 - 0.0 - Partly cloudy 10 - - - -
31/01:30pm 29.0 E 16 21 1009.6 - 0.0 - Partly cloudy 10 - - - -
31/01:00pm 29.5 E 14 20 1010.1 - 0.0 - Partly cloudy 10 - - - -
31/12:30pm 29.4 E 15 19 1010.6 - 0.0 - Partly cloudy 10 - - - -
31/12:00pm 29.1 E 15 20 1011.1 - 0.0 - - 10 - - - -
31/11:30am 29.1 E 15 21 1011.4 - 0.0 - - 10 - - - -
31/11:00am 29.0 E 14 19 1011.7 - 0.0 - - 10 - - - -
31/10:30am 28.7 E 15 20 1012.0 - 0.0 - - 10 - - - -
31/10:00am 29.3 ESE 15 21 1012.2 - 0.0 - Partly cloudy 10 - - - -
31/09:30am 28.6 ESE 14 19 1012.4 - 0.0 - Partly cloudy 10 - - - -
31/09:00am 27.4 E 14 19 1012.3 - 0.0 - Mostly clear 10 - - - -
31/08:30am 27.7 E 14 18 1012.0 - 0.0 - Partly cloudy 10 - - - -
31/08:00am 27.5 ESE 12 17 1011.9 - 0.0 - - 10 - - - -
31/07:30am 26.6 ESE 11 14 1011.8 - 0.0 - Partly cloudy 10 - - - -
31/07:00am 25.7 SE 11 15 1011.5 - 0.0 - Partly cloudy 10 - - - -
31/06:30am 24.8 SE 7 10 1011.2 - 0.0 - Partly cloudy 10 - - - -
31/06:00am 24.6 SE 8 11 1010.8 - 0.0 - Mostly clear 10 - - - -
31/05:30am 24.9 ESE 8 10 1010.6 - 0.0 - Partly cloudy 10 - - - -
31/05:00am 24.8 ESE 7 11 1010.2 - 0.0 - Partly cloudy 10 - - - -
31/04:30am 24.7 SE 7 11 1009.9 - 0.0 - Partly cloudy 10 - - - -
31/04:00am 24.7 SE 7 11 1009.7 - 0.0 - Partly cloudy 10 - - - -
31/03:30am 24.9 SE 8 11 1009.6 - 0.0 - Partly cloudy 10 - - - -
31/03:00am 24.8 ESE 9 13 1009.6 - 0.0 - Cloudy 10 - - - -
31/02:30am 24.8 ESE 9 13 1009.8 - 0.0 - Partly cloudy 10 - - - -
31/02:00am 24.9 SE 9 11 1010.0 - 0.0 - Partly cloudy 10 - - - -
31/01:30am 24.9 ESE 8 12 1010.3 - 0.0 - Partly cloudy 10 - - - -
31/01:00am 25.1 ESE 9 12 1010.6 - 0.0 - Partly cloudy 10 - - - -
31/12:30am 25.0 ESE 10 14 1010.8 - 0.0 - Partly cloudy 10 - - - -
31/12:00am 25.1 ESE 10 14 1011.1 - 0.0 - Mostly clear 10 - - - -
 
Date/Time
EST
Temp

°C
Wind Pressure Rain
since 9am
mm
Weather Cloud Vis
km
Sea
Height
m
Swell
Dir
 
Speed
knots
Gust
knots
hPa Trend Height
m
Period
s
Dir
30/11:30pm 25.1 ESE 9 14 1011.3 - 0.0 - Partly cloudy 10 - - - -
30/11:00pm 25.2 ESE 9 13 1011.5 - 0.0 - - 10 - - - -
30/10:30pm 25.3 ESE 11 14 1011.4 - 0.0 - - 10 - - - -
30/10:00pm 25.3 ESE 12 15 1011.4 - 0.0 - - 10 - - - -
30/09:30pm 25.4 ESE 9 13 1011.2 - 0.0 - - 10 - - - -
30/09:00pm 25.5 SE 12 16 1010.8 - 0.0 - - 10 - - - -
30/08:30pm 25.5 ESE 11 14 1010.5 - 0.0 - - 10 - - - -
30/08:00pm 25.7 ESE 12 18 1010.3 - 0.0 - - 10 - - - -
30/07:30pm 25.8 ESE 13 18 1010.1 - 0.0 - Partly cloudy 10 - - - -
30/07:00pm 26.2 ESE 12 15 1009.7 - 0.0 - Partly cloudy 10 - - - -
30/06:30pm 26.1 ESE 12 18 1009.3 - 0.0 - - 10 - - - -
30/06:00pm 26.6 E 12 16 1009.0 - 0.0 - - 10 - - - -
30/05:30pm 27.2 E 14 18 1008.7 - 0.0 - - 10 - - - -
30/05:00pm 27.6 E 14 18 1008.6 - 0.0 - - 10 - - - -
30/04:30pm 27.8 E 14 18 1008.6 - 0.0 - - 10 - - - -
30/04:00pm 28.0 E 14 19 1008.6 - 0.0 - - 10 - - - -
30/03:30pm 28.5 E 15 19 1008.9 - 0.0 - - 10 - - - -
30/03:00pm 28.8 E 14 19 1009.1 - 0.0 - - 10 - - - -
30/02:30pm 28.9 E 14 19 1009.3 - 0.0 - - 10 - - - -
30/02:00pm 28.9 E 13 17 1009.6 - 0.0 - - 10 - - - -
30/01:30pm 28.8 E 12 17 1009.8 - 0.0 - - 10 - - - -
30/01:00pm 28.8 E 14 19 1010.5 - 0.0 - - 10 - - - -
30/12:30pm 30.2 E 14 21 1010.9 - 0.0 - - 10 - - - -
30/12:00pm 28.8 E 13 18 1011.4 - 0.0 - - 10 - - - -
30/11:30am 28.8 E 13 19 1011.6 - 0.0 - - 10 - - - -
30/11:00am 28.6 E 13 19 1011.9 - 0.0 - - 10 - - - -
30/10:30am 28.4 E 12 16 1012.1 - 0.0 - - 10 - - - -
30/10:00am 28.4 E 11 16 1012.4 - 0.0 - - 10 - - - -
30/09:30am 28.3 E 11 16 1012.5 - 0.0 - Partly cloudy 10 - - - -
30/09:00am 27.5 ESE 10 15 1012.5 - 0.0 - Mostly clear 10 - - - -
30/08:30am 27.1 ESE 10 14 1012.5 - 0.0 - Partly cloudy 10 - - - -
30/08:00am 26.4 ESE 10 14 1012.3 - 0.0 - Partly cloudy 10 - - - -
30/07:30am 25.5 SSE 7 9 1012.0 - 0.0 - Partly cloudy 10 - - - -
30/07:00am 25.1 SE 7 9 1011.8 - 0.0 - - 10 - - - -
30/06:30am 24.3 SE 6 8 1011.4 - 0.0 - - 10 - - - -
30/06:00am 24.1 ESE 6 8 1011.2 - 0.0 - - 10 - - - -
30/05:30am 24.3 SE 8 11 1010.7 - 0.0 - - 10 - - - -
30/05:00am 24.6 SE 8 11 1010.5 - 0.0 - Partly cloudy 10 - - - -
30/04:30am 24.8 ESE 8 11 1010.3 - 0.0 - Partly cloudy 10 - - - -
30/04:00am 24.8 ESE 9 12 1010.3 - 0.0 - - 10 - - - -
30/03:30am 24.9 E 9 13 1010.1 - 0.0 - Partly cloudy 10 - - - -
30/03:00am 24.8 E 9 13 1010.2 - 0.0 - Mostly clear 10 - - - -
30/02:30am 24.9 E 10 14 1010.5 - 0.0 - Partly cloudy 10 - - - -
30/02:00am 25.1 ESE 9 14 1010.8 - 0.0 - Partly cloudy 10 - - - -
30/01:30am 25.1 E 11 14 1010.9 - 0.0 - Partly cloudy 10 - - - -
30/01:00am 25.3 E 10 16 1011.3 - 0.0 - Partly cloudy 10 - - - -
30/12:30am 25.3 E 10 13 1011.6 - 0.0 - Partly cloudy 10 - - - -
30/12:00am 25.4 E 10 14 1012.0 - 0.0 - Mostly clear 10 - - - -
 
Date/Time
EST
Temp

°C
Wind Pressure Rain
since 9am
mm
Weather Cloud Vis
km
Sea
Height
m
Swell
Dir
 
Speed
knots
Gust
knots
hPa Trend Height
m
Period
s
Dir
29/11:30pm 25.5 E 10 13 1012.0 - 0.0 - Partly cloudy 10 - - - -
29/11:00pm 25.5 ESE 10 14 1012.3 - 0.0 - Partly cloudy 10 - - - -
29/10:30pm 25.5 E 8 12 1012.5 - 0.0 - Partly cloudy 10 - - - -
29/10:00pm 25.6 ESE 10 14 1012.5 - 0.0 - Partly cloudy 10 - - - -
29/09:30pm 25.5 ESE 8 12 1012.4 - 0.0 - Partly cloudy 10 - - - -
29/09:00pm 25.6 ESE 9 12 1012.3 - 0.0 - Partly cloudy 10 - - - -
29/08:30pm 25.7 ESE 11 14 1011.8 - 0.0 - - 10 - - - -
29/08:00pm 25.9 ESE 11 14 1011.6 - 0.0 - - 10 - - - -
29/07:30pm 26.0 ESE 11 15 1011.5 - 0.0 - - 10 - - - -
29/07:00pm 26.0 E 11 14 1011.2 - 0.0 - - 10 - - - -
29/06:30pm 26.3 E 11 16 1010.9 - 0.0 - - 10 - - - -
29/06:00pm 26.8 E 14 19 1010.7 - 0.0 - - 10 - - - -
29/05:30pm 27.3 E 15 20 1010.3 - 0.0 - - 10 - - - -
29/05:00pm 28.0 ESE 13 18 1010.2 - 0.0 - Partly cloudy 10 - - - -
29/04:30pm 28.2 E 13 16 1010.1 - 0.0 - - 10 - - - -
29/04:00pm 28.7 E 15 19 1009.8 - 0.0 - - 10 - - - -
29/03:30pm 28.6 E 12 19 1009.9 - 0.0 - Partly cloudy 10 - - - -
29/03:00pm 28.7 E 13 16 1010.0 - 0.0 - Mostly clear 10 - - - -
29/02:30pm 28.7 E 14 19 1010.3 - 0.0 - - 10 - - - -
29/02:00pm 28.9 E 14 19 1010.5 - 0.0 - - 10 - - - -
29/01:30pm 28.8 E 12 17 1010.9 - 0.0 - - 10 - - - -
29/01:00pm 28.7 E 13 17 1011.3 - 0.0 - Partly cloudy 10 - - - -
29/12:30pm 28.6 E 13 17 1011.6 - 0.0 - - 10 - - - -
29/12:00pm 28.5 E 12 16 1011.9 - 0.0 - - 10 - - - -
29/11:30am 28.2 E 12 17 1012.2 - 0.0 - - 10 - - - -
29/11:00am 28.3 E 12 16 1012.5 - 0.0 - - 10 - - - -
29/10:30am 28.6 E 11 16 1012.7 - 0.0 - Partly cloudy 10 - - - -
29/10:00am 28.3 E 11 17 1013.1 - 0.0 - Partly cloudy 10 - - - -
29/09:30am 28.3 ESE 10 13 1013.2 - 0.0 - Partly cloudy 10 - - - -
29/09:00am 27.3 E 11 16 1013.4 - 0.0 - Mostly clear 10 - - - -
29/08:30am 27.3 SE 9 13 1013.1 - 0.0 - Partly cloudy 10 - - - -
29/08:00am 27.4 SE 8 11 1012.9 - 0.0 - Partly cloudy 10 - - - -
29/07:30am 26.4 SE 10 13 1012.5 - 0.0 - - 10 - - - -
29/07:00am 25.2 SE 8 11 1011.9 - 0.0 - - 10 - - - -
29/06:30am 24.4 SE 6 9 1011.7 - 0.0 - Partly cloudy 10 - - - -
29/06:00am 23.4 SSE 3 4 1011.7 - 0.0 - Mostly clear 10 - - - -
29/05:30am 24.0 SE 4 5 1011.4 - 0.0 - Partly cloudy 10 - - - -
29/05:00am 24.1 SE 5 6 1011.0 - 0.0 - Partly cloudy 10 - - - -
29/04:30am 24.3 SSE 5 6 1010.8 - 0.0 - Partly cloudy 10 - - - -
29/04:00am 24.5 SE 5 7 1010.7 - 0.0 - Partly cloudy 10 - - - -
29/03:30am 24.4 SE 6 7 1010.5 - 0.0 - Partly cloudy 10 - - - -
29/03:00am 24.8 ESE 7 9 1010.4 - 0.0 - Mostly clear 10 - - - -
29/02:30am 24.9 ESE 8 9 1010.5 - 0.0 - Partly cloudy 10 - - - -
29/02:00am 25.0 ESE 9 11 1010.7 - 0.0 - - 10 - - - -
29/01:30am 25.2 ESE 9 14 1011.0 - 0.0 - Partly cloudy 10 - - - -
29/01:00am 25.3 ESE 8 12 1011.3 - 0.0 - Partly cloudy 10 - - - -
29/12:30am 25.3 ESE 9 13 1011.4 - 0.0 - Partly cloudy 10 - - - -

Other Formats:

Comma delimited format used in spreadsheet applications
http://www.bom.gov.au/fwo/IDQ60701/IDQ60701.94174.axf

JavaScript Object Notation format (JSON) in row-major order
http://www.bom.gov.au/fwo/IDQ60701/IDQ60701.94174.json